createdAt,value
2019-02-22T00:00:51.659Z,72.90
2019-02-22T00:03:24.325Z,72.92
2019-02-22T00:05:35.139Z,72.91
2019-02-22T00:07:45.956Z,73.12
2019-02-22T00:09:56.781Z,73.41
2019-02-22T00:12:07.603Z,73.51
2019-02-22T00:14:18.434Z,73.60
2019-02-22T00:16:29.216Z,73.70
2019-02-22T00:18:40.035Z,73.64
2019-02-22T00:20:50.846Z,73.54
2019-02-22T00:23:01.683Z,73.51
2019-02-22T00:25:12.491Z,73.50
2019-02-22T00:27:23.321Z,73.59
2019-02-22T00:29:34.122Z,73.67
2019-02-22T00:31:45.048Z,73.70
2019-02-22T00:33:55.871Z,73.72
2019-02-22T00:36:06.720Z,73.70
2019-02-22T00:38:17.513Z,73.69
2019-02-22T00:40:28.318Z,73.94
2019-02-22T00:42:39.125Z,73.95
2019-02-22T00:44:49.918Z,73.52
2019-02-22T00:47:00.712Z,73.48
2019-02-22T00:49:11.535Z,73.17
2019-02-22T00:51:22.436Z,73.04
2019-02-22T00:53:33.265Z,72.98
2019-02-22T00:55:44.077Z,72.87
2019-02-22T00:57:54.940Z,72.79
2019-02-22T01:00:47.325Z,72.65
2019-02-22T01:02:58.136Z,72.52
2019-02-22T01:05:09.043Z,72.30
2019-02-22T01:07:21.781Z,72.13
2019-02-22T01:09:32.580Z,72.10
2019-02-22T01:11:43.392Z,71.93
2019-02-22T01:13:54.247Z,71.91
2019-02-22T01:16:05.000Z,72.01
2019-02-22T01:18:15.947Z,71.88
2019-02-22T01:20:26.752Z,71.85
2019-02-22T01:22:37.610Z,71.91
2019-02-22T01:24:48.442Z,71.79
2019-02-22T01:26:59.242Z,71.83
2019-02-22T01:29:10.063Z,71.82
2019-02-22T01:31:20.859Z,71.89
2019-02-22T01:33:31.683Z,71.83
2019-02-22T01:35:42.468Z,72.02
2019-02-22T01:37:53.292Z,72.14
2019-02-22T01:40:45.765Z,72.22
2019-02-22T01:42:56.652Z,72.25
2019-02-22T01:45:07.683Z,72.14
2019-02-22T01:47:18.472Z,72.11
2019-02-22T01:49:29.286Z,72.21
2019-02-22T01:51:40.087Z,72.10
2019-02-22T01:53:50.904Z,72.30
2019-02-22T01:56:01.692Z,72.28
2019-02-22T01:58:12.574Z,72.32
2019-02-22T02:00:23.326Z,72.42
2019-02-22T02:02:34.145Z,72.38
2019-02-22T02:04:45.507Z,72.10
2019-02-22T02:06:56.309Z,72.17
2019-02-22T02:09:07.103Z,72.18
2019-02-22T02:11:17.937Z,72.30
2019-02-22T02:13:28.736Z,72.23
2019-02-22T02:15:39.537Z,72.31
2019-02-22T02:17:50.324Z,72.36
2019-02-22T02:20:01.338Z,72.23
2019-02-22T02:22:13.875Z,72.26
2019-02-22T02:24:24.664Z,72.44
2019-02-22T02:26:35.472Z,72.46
2019-02-22T02:28:46.272Z,72.48
2019-02-22T02:30:57.086Z,72.61
2019-02-22T02:33:07.899Z,72.66
2019-02-22T02:35:18.699Z,72.61
2019-02-22T02:37:29.497Z,72.65
2019-02-22T02:39:40.285Z,72.64
2019-02-22T02:41:51.113Z,72.62
2019-02-22T02:44:01.898Z,72.62
2019-02-22T02:46:12.769Z,72.60
2019-02-22T02:48:23.564Z,72.59
2019-02-22T02:50:34.386Z,72.51
2019-02-22T02:52:45.214Z,72.61
2019-02-22T02:54:55.974Z,72.75
2019-02-22T02:57:06.786Z,72.78
2019-02-22T02:59:17.603Z,72.79
2019-02-22T03:01:28.408Z,72.84
2019-02-22T03:03:39.213Z,72.85
2019-02-22T03:06:09.905Z,72.96
2019-02-22T03:10:53.143Z,73.08
2019-02-22T03:13:03.940Z,73.20
2019-02-22T03:17:47.109Z,73.23
2019-02-22T03:19:57.917Z,73.22
2019-02-22T03:22:08.742Z,73.31
2019-02-22T03:24:19.547Z,73.37
2019-02-22T03:26:30.332Z,73.39
2019-02-22T03:28:41.158Z,73.51
2019-02-22T03:30:51.951Z,73.64
2019-02-22T03:33:02.763Z,73.65
2019-02-22T03:35:33.422Z,73.67
2019-02-22T03:37:44.239Z,73.66
2019-02-22T03:39:55.037Z,73.66
2019-02-22T03:42:05.848Z,73.96
2019-02-22T03:44:16.627Z,74.25
2019-02-22T03:46:27.425Z,74.36
2019-02-22T03:48:38.236Z,74.33
2019-02-22T03:50:49.040Z,74.29
2019-02-22T03:55:18.870Z,74.19
2019-02-22T03:57:29.665Z,74.01
2019-02-22T03:59:40.483Z,74.05
2019-02-22T04:01:51.283Z,74.06
2019-02-22T04:04:02.117Z,74.11
2019-02-22T04:06:12.914Z,74.08
2019-02-22T04:08:23.728Z,74.06
2019-02-22T04:10:34.524Z,73.96
2019-02-22T04:12:45.341Z,73.89
2019-02-22T04:14:56.160Z,73.88
2019-02-22T04:17:06.990Z,73.88
2019-02-22T04:19:17.795Z,73.91
2019-02-22T04:21:28.655Z,73.88
2019-02-22T04:23:39.554Z,73.92
2019-02-22T04:25:50.376Z,73.92
2019-02-22T04:28:01.201Z,73.91
2019-02-22T04:30:12.092Z,73.92
2019-02-22T04:32:22.884Z,73.88
2019-02-22T04:36:56.122Z,73.67
2019-02-22T04:39:06.883Z,73.68
2019-02-22T04:41:17.694Z,73.76
2019-02-22T04:43:28.504Z,73.98
2019-02-22T04:45:39.310Z,74.20
2019-02-22T04:47:50.129Z,74.21
2019-02-22T04:50:00.938Z,74.44
2019-02-22T04:52:11.744Z,74.61
2019-02-22T04:54:22.559Z,74.64
2019-02-22T04:56:33.366Z,74.76
2019-02-22T04:58:44.249Z,75.13
2019-02-22T05:00:55.072Z,75.23
2019-02-22T05:03:05.895Z,75.40
2019-02-22T05:05:16.700Z,75.58
2019-02-22T05:07:27.503Z,75.78
2019-02-22T05:09:38.298Z,75.83
2019-02-22T05:11:49.108Z,76.02
2019-02-22T05:13:59.903Z,76.20
2019-02-22T05:16:10.797Z,76.79
2019-02-22T05:18:21.591Z,76.83
2019-02-22T05:20:32.419Z,77.02
2019-02-22T05:22:43.237Z,77.36
2019-02-22T05:24:54.036Z,77.57
2019-02-22T05:27:04.879Z,78.33
2019-02-22T05:29:15.690Z,78.51
2019-02-22T05:31:26.488Z,78.45
2019-02-22T05:33:37.296Z,78.71
2019-02-22T05:35:48.115Z,78.72
2019-02-22T05:37:59.030Z,78.75
2019-02-22T05:40:09.828Z,79.07
2019-02-22T05:42:23.159Z,79.56
2019-02-22T05:44:33.532Z,80.06
2019-02-22T05:46:44.380Z,80.61
2019-02-22T05:48:55.163Z,81.06
2019-02-22T05:51:06.096Z,81.24
2019-02-22T05:53:16.913Z,81.36
2019-02-22T05:55:27.719Z,81.57
2019-02-22T05:57:38.542Z,81.69
2019-02-22T05:59:49.346Z,81.91
2019-02-22T06:02:00.141Z,82.07
2019-02-22T06:04:10.942Z,82.19
2019-02-22T06:06:21.745Z,82.37
2019-02-22T06:08:32.588Z,82.59
2019-02-22T06:10:43.373Z,82.86
2019-02-22T06:12:54.192Z,83.11
2019-02-22T06:15:46.649Z,83.16
2019-02-22T06:17:57.460Z,83.35
2019-02-22T06:20:49.923Z,83.91
2019-02-22T06:23:00.760Z,84.05
2019-02-22T06:25:11.586Z,84.30
2019-02-22T06:27:22.392Z,84.37
2019-02-22T06:29:33.201Z,84.53
2019-02-22T06:31:44.007Z,84.72
2019-02-22T06:33:54.809Z,84.77
2019-02-22T06:36:05.696Z,84.74
2019-02-22T06:38:16.521Z,85.07
2019-02-22T06:40:27.334Z,85.24
2019-02-22T06:42:45.379Z,85.29
2019-02-22T06:44:51.076Z,85.32
2019-02-22T06:47:01.911Z,85.36
2019-02-22T06:49:12.726Z,85.38
2019-02-22T06:51:23.513Z,85.45
2019-02-22T06:53:34.342Z,85.49
2019-02-22T06:55:45.136Z,85.56
2019-02-22T06:57:56.022Z,85.61
2019-02-22T07:00:48.486Z,85.77
2019-02-22T07:02:59.291Z,85.82
2019-02-22T07:05:10.155Z,85.85
2019-02-22T07:07:20.949Z,86.01
2019-02-22T07:09:31.769Z,85.95
2019-02-22T07:12:02.434Z,86.11
2019-02-22T07:14:13.309Z,86.10
2019-02-22T07:16:24.106Z,86.17
2019-02-22T07:18:34.912Z,86.27
2019-02-22T07:20:45.734Z,86.39
2019-02-22T07:22:56.620Z,86.44
2019-02-22T07:25:49.098Z,86.34
2019-02-22T07:27:59.892Z,86.30
2019-02-22T07:30:11.112Z,86.55
2019-02-22T07:32:21.897Z,86.63
2019-02-22T07:34:32.696Z,86.74
2019-02-22T07:36:43.623Z,86.80
2019-02-22T07:38:54.412Z,87.04
2019-02-22T07:41:05.237Z,87.87
2019-02-22T07:43:16.025Z,86.71
2019-02-22T07:45:26.849Z,85.13
2019-02-22T07:47:37.644Z,85.49
2019-02-22T07:49:48.431Z,84.20
2019-02-22T07:51:59.250Z,81.72
2019-02-22T07:54:10.054Z,81.30
2019-02-22T07:56:20.883Z,81.54
2019-02-22T07:58:31.673Z,82.13
2019-02-22T08:00:42.497Z,82.69
2019-02-22T08:02:53.303Z,83.22
2019-02-22T08:05:25.870Z,83.61
2019-02-22T08:07:36.699Z,83.99
2019-02-22T08:09:47.525Z,84.26
2019-02-22T08:11:58.442Z,84.24
2019-02-22T08:14:09.240Z,84.33
2019-02-22T08:16:20.081Z,84.09
2019-02-22T08:18:30.886Z,84.24
2019-02-22T08:20:41.702Z,84.47
2019-02-22T08:22:52.552Z,84.16
2019-02-22T08:25:44.988Z,84.07
2019-02-22T08:27:55.805Z,84.09
2019-02-22T08:30:48.499Z,84.10
2019-02-22T08:32:59.346Z,83.94
2019-02-22T08:35:10.147Z,83.98
2019-02-22T08:37:21.057Z,83.73
2019-02-22T08:39:31.856Z,83.60
2019-02-22T08:41:42.670Z,83.36
2019-02-22T08:43:53.484Z,83.36
2019-02-22T08:46:04.394Z,83.01
2019-02-22T08:48:15.308Z,82.95
2019-02-22T08:50:26.146Z,82.66
2019-02-22T08:52:36.965Z,82.65
2019-02-22T08:54:48.102Z,82.48
2019-02-22T08:57:00.484Z,82.03
2019-02-22T08:59:11.309Z,81.82
2019-02-22T09:01:22.652Z,81.87
2019-02-22T09:05:57.632Z,81.70
2019-02-22T09:08:08.466Z,81.66
2019-02-22T09:10:19.291Z,81.44
2019-02-22T09:12:30.075Z,81.57
2019-02-22T09:14:40.960Z,81.30
2019-02-22T09:16:51.738Z,80.26
2019-02-22T09:19:02.558Z,79.71
2019-02-22T09:21:13.367Z,79.29
2019-02-22T09:23:24.317Z,77.92
2019-02-22T09:25:35.134Z,77.78
2019-02-22T09:27:45.945Z,77.86
2019-02-22T09:29:59.032Z,77.87
2019-02-22T09:32:09.503Z,77.53
2019-02-22T09:34:20.360Z,77.40
2019-02-22T09:36:31.169Z,77.56
2019-02-22T09:38:41.979Z,78.07
2019-02-22T09:40:52.825Z,77.93
2019-02-22T09:43:03.628Z,77.80
2019-02-22T09:45:14.459Z,77.60
2019-02-22T09:47:25.397Z,76.97
2019-02-22T09:49:36.199Z,76.80
2019-02-22T09:51:47.140Z,74.84
2019-02-22T09:53:57.913Z,71.91
2019-02-22T09:56:08.766Z,71.74
2019-02-22T09:58:19.541Z,70.66
2019-02-22T10:00:30.386Z,69.16
2019-02-22T10:02:41.281Z,69.43
2019-02-22T10:04:54.933Z,69.65
2019-02-22T10:07:04.827Z,68.41
2019-02-22T10:09:15.606Z,69.54
2019-02-22T10:11:26.449Z,69.45
2019-02-22T10:13:37.282Z,67.37
2019-02-22T10:15:48.069Z,66.25
2019-02-22T10:17:58.870Z,64.56
2019-02-22T10:20:09.675Z,65.89
2019-02-22T10:22:20.526Z,64.66
2019-02-22T10:24:31.327Z,63.82
2019-02-22T10:26:42.181Z,62.46
2019-02-22T10:28:53.016Z,62.80
2019-02-22T10:31:03.831Z,62.93
2019-02-22T10:33:14.684Z,63.10
2019-02-22T10:35:25.485Z,62.39
2019-02-22T10:37:36.319Z,61.10
2019-02-22T10:39:47.100Z,61.61
2019-02-22T10:41:57.925Z,62.51
2019-02-22T10:44:17.371Z,61.10
2019-02-22T10:46:22.458Z,61.69
2019-02-22T10:48:34.163Z,61.38
2019-02-22T10:51:04.843Z,62.27
2019-02-22T10:53:15.749Z,59.98
2019-02-22T10:55:26.510Z,59.92
2019-02-22T10:57:37.330Z,58.98
2019-02-22T10:59:55.326Z,56.84
2019-02-22T11:02:06.189Z,55.95
2019-02-22T11:04:17.102Z,54.66
2019-02-22T11:06:27.916Z,52.65
2019-02-22T11:08:38.756Z,53.75
2019-02-22T11:10:49.585Z,49.46
2019-02-22T11:13:00.426Z,48.19
2019-02-22T11:15:52.884Z,50.29
2019-02-22T11:18:03.830Z,48.82
2019-02-22T11:20:14.655Z,48.86
2019-02-22T11:22:25.472Z,49.94
2019-02-22T11:24:36.310Z,49.71
2019-02-22T11:26:47.113Z,50.59
2019-02-22T11:28:57.951Z,50.61
2019-02-22T11:31:08.766Z,49.69
2019-02-22T11:33:19.561Z,47.39
2019-02-22T11:35:30.384Z,47.51
2019-02-22T11:37:41.195Z,49.10
2019-02-22T11:39:52.017Z,49.64
2019-02-22T11:42:44.470Z,49.47
2019-02-22T11:44:55.296Z,49.81
2019-02-22T11:47:06.277Z,51.19
2019-02-22T11:49:17.110Z,50.97
2019-02-22T11:51:27.931Z,51.18
2019-02-22T11:53:38.768Z,51.51
2019-02-22T11:55:49.694Z,51.28
2019-02-22T11:58:00.506Z,52.13
2019-02-22T12:00:52.990Z,51.22
2019-02-22T12:03:21.256Z,51.86
2019-02-22T12:05:16.707Z,52.53
2019-02-22T12:07:27.527Z,52.64
2019-02-22T12:09:38.422Z,51.70
2019-02-22T12:11:49.235Z,52.63
2019-02-22T12:14:00.077Z,53.50
2019-02-22T12:16:10.917Z,53.19
2019-02-22T12:18:21.722Z,53.77
2019-02-22T12:20:32.543Z,53.08
2019-02-22T12:22:43.366Z,53.68
2019-02-22T12:24:54.276Z,53.69
2019-02-22T12:27:05.108Z,53.38
2019-02-22T12:29:15.926Z,53.78
2019-02-22T12:31:26.766Z,53.50
2019-02-22T12:33:37.563Z,54.08
2019-02-22T12:35:48.372Z,54.18
2019-02-22T12:37:59.311Z,54.92
2019-02-22T12:40:51.791Z,54.59
2019-02-22T12:43:02.679Z,53.58
2019-02-22T12:45:13.476Z,53.17
2019-02-22T12:47:24.337Z,52.80
2019-02-22T12:49:35.148Z,52.15
2019-02-22T12:51:46.064Z,52.16
2019-02-22T12:53:56.922Z,52.34
2019-02-22T12:56:07.757Z,52.42
2019-02-22T12:58:18.563Z,51.08
2019-02-22T13:00:29.358Z,51.20
2019-02-22T13:02:40.176Z,51.73
2019-02-22T13:04:51.086Z,51.25
2019-02-22T13:07:01.932Z,51.53
2019-02-22T13:09:12.876Z,51.35
2019-02-22T13:11:23.716Z,51.50
2019-02-22T13:13:34.540Z,51.51
2019-02-22T13:15:45.355Z,52.09
2019-02-22T13:17:56.202Z,52.45
2019-02-22T13:20:48.633Z,52.26
2019-02-22T13:22:59.482Z,52.71
2019-02-22T13:25:10.626Z,51.81
2019-02-22T13:27:21.411Z,52.51
2019-02-22T13:29:32.240Z,51.26
2019-02-22T13:31:43.010Z,51.72
2019-02-22T13:33:53.851Z,51.69
2019-02-22T13:36:04.655Z,51.38
2019-02-22T13:38:15.478Z,50.82
2019-02-22T13:40:26.303Z,51.02
2019-02-22T13:42:37.119Z,50.87
2019-02-22T13:44:47.976Z,51.15
2019-02-22T13:46:58.879Z,51.58
2019-02-22T13:49:09.882Z,50.78
2019-02-22T13:51:20.630Z,50.26
2019-02-22T13:53:31.499Z,49.28
2019-02-22T13:55:42.322Z,49.47
2019-02-22T13:57:53.117Z,50.73
2019-02-22T14:00:45.779Z,50.42
2019-02-22T14:02:56.600Z,50.56
2019-02-22T14:05:07.588Z,49.92
2019-02-22T14:07:18.342Z,50.22
2019-02-22T14:09:29.157Z,49.81
2019-02-22T14:11:39.950Z,49.07
2019-02-22T14:13:50.773Z,48.34
2019-02-22T14:16:01.609Z,52.16
2019-02-22T14:18:12.404Z,51.69
2019-02-22T14:20:23.248Z,49.91
2019-02-22T14:22:34.074Z,46.92
2019-02-22T14:24:44.932Z,46.87
2019-02-22T14:26:55.759Z,47.63
2019-02-22T14:29:06.551Z,47.89
2019-02-22T14:31:17.379Z,47.95
2019-02-22T14:33:28.187Z,47.97
2019-02-22T14:35:39.034Z,48.35
2019-02-22T14:37:49.853Z,46.01
2019-02-22T14:40:03.669Z,45.87
2019-02-22T14:42:13.497Z,46.20
2019-02-22T14:44:24.312Z,46.37
2019-02-22T14:46:35.121Z,46.35
2019-02-22T14:48:45.942Z,46.86
2019-02-22T14:50:56.751Z,46.87
2019-02-22T14:53:18.771Z,47.41
2019-02-22T14:55:20.280Z,48.04
2019-02-22T14:57:31.130Z,48.78
2019-02-22T14:59:41.947Z,47.94
2019-02-22T15:01:52.786Z,48.46
2019-02-22T15:04:03.694Z,49.02
2019-02-22T15:06:14.536Z,48.60
2019-02-22T15:08:25.343Z,48.87
2019-02-22T15:10:36.182Z,49.00
2019-02-22T15:12:47.100Z,49.13
2019-02-22T15:14:57.923Z,48.93
2019-02-22T15:17:28.630Z,48.97
2019-02-22T15:19:39.533Z,49.54
2019-02-22T15:21:50.480Z,49.80
2019-02-22T15:24:01.313Z,50.44
2019-02-22T15:26:12.124Z,50.47
2019-02-22T15:28:22.966Z,50.39
2019-02-22T15:30:33.934Z,50.67
2019-02-22T15:32:44.819Z,50.95
2019-02-22T15:34:55.608Z,50.70
2019-02-22T15:37:06.424Z,50.66
2019-02-22T15:39:17.260Z,51.25
2019-02-22T15:41:28.082Z,50.65
2019-02-22T15:43:38.894Z,50.85
2019-02-22T15:45:49.738Z,51.02
2019-02-22T15:48:00.558Z,51.01
2019-02-22T15:50:33.122Z,50.64
2019-02-22T15:55:44.661Z,51.22
2019-02-22T15:57:55.471Z,51.23
2019-02-22T16:00:48.072Z,51.49
2019-02-22T16:02:58.871Z,51.70
2019-02-22T16:07:32.044Z,52.04
2019-02-22T16:09:42.863Z,51.94
2019-02-22T16:11:53.711Z,52.38
2019-02-22T16:14:07.111Z,52.53
2019-02-22T16:16:23.164Z,52.62
2019-02-22T16:18:30.304Z,52.73
2019-02-22T16:20:41.261Z,52.52
2019-02-22T16:22:52.107Z,52.74
2019-02-22T16:25:44.575Z,52.86
2019-02-22T16:27:55.409Z,52.88
2019-02-22T16:30:48.113Z,52.88
2019-02-22T16:32:58.893Z,53.02
2019-02-22T16:35:09.850Z,53.12
2019-02-22T16:37:20.791Z,53.07
2019-02-22T16:39:31.610Z,53.07
2019-02-22T16:41:42.430Z,53.26
2019-02-22T16:43:53.229Z,53.45
2019-02-22T16:46:04.057Z,53.51
2019-02-22T16:48:14.869Z,53.64
2019-02-22T16:50:25.699Z,53.81
2019-02-22T16:52:36.632Z,54.23
2019-02-22T16:54:47.449Z,54.68
2019-02-22T16:56:58.310Z,55.35
2019-02-22T16:59:09.161Z,56.09
2019-02-22T17:01:20.032Z,56.52
2019-02-22T17:03:30.829Z,57.23
2019-02-22T17:05:41.671Z,57.65
2019-02-22T17:07:53.476Z,58.14
2019-02-22T17:10:26.060Z,58.73
2019-02-22T17:12:36.892Z,58.69
2019-02-22T17:14:47.695Z,59.14
2019-02-22T17:16:58.553Z,59.61
2019-02-22T17:19:09.347Z,60.03
2019-02-22T17:21:20.172Z,60.67
2019-02-22T17:23:31.015Z,60.69
2019-02-22T17:25:41.815Z,60.79
2019-02-22T17:27:52.633Z,61.53
2019-02-22T17:30:45.080Z,61.64
2019-02-22T17:32:55.926Z,62.26
2019-02-22T17:35:06.755Z,63.75
2019-02-22T17:37:17.590Z,63.75
2019-02-22T17:39:28.411Z,63.30
2019-02-22T17:41:39.247Z,63.63
2019-02-22T17:43:50.061Z,63.72
2019-02-22T17:46:00.879Z,63.66
2019-02-22T17:48:11.712Z,63.90
2019-02-22T17:50:22.509Z,63.93
2019-02-22T17:52:33.327Z,63.77
2019-02-22T17:54:44.169Z,63.91
2019-02-22T17:56:54.998Z,64.41
2019-02-22T17:59:05.832Z,65.11
2019-02-22T18:01:16.630Z,65.78
2019-02-22T18:03:27.454Z,66.59
2019-02-22T18:05:38.302Z,67.04
2019-02-22T18:07:49.164Z,68.17
2019-02-22T18:10:00.014Z,67.45
2019-02-22T18:12:10.828Z,67.00
2019-02-22T18:14:21.760Z,66.09
2019-02-22T18:16:32.539Z,66.34
2019-02-22T18:18:43.337Z,65.95
2019-02-22T18:20:54.184Z,65.99
2019-02-22T18:23:05.102Z,66.17
2019-02-22T18:25:15.934Z,66.40
2019-02-22T18:27:26.757Z,66.55
2019-02-22T18:29:37.657Z,66.57
2019-02-22T18:31:48.398Z,66.85
2019-02-22T18:33:59.200Z,66.71
2019-02-22T18:36:10.126Z,66.48
2019-02-22T18:38:20.934Z,67.15
2019-02-22T18:40:31.817Z,67.56
2019-02-22T18:42:42.662Z,67.68
2019-02-22T18:44:53.482Z,67.73
2019-02-22T18:47:04.313Z,68.00
2019-02-22T18:49:15.177Z,68.46
2019-02-22T18:51:25.990Z,68.69
2019-02-22T18:53:36.816Z,69.05
2019-02-22T18:55:50.426Z,69.10
2019-02-22T18:58:00.348Z,68.67
2019-02-22T19:00:52.842Z,69.28
2019-02-22T19:03:03.781Z,69.59
2019-02-22T19:05:14.701Z,69.72
2019-02-22T19:07:27.293Z,70.25
2019-02-22T19:09:38.318Z,69.97
2019-02-22T19:11:49.166Z,69.79
2019-02-22T19:13:59.980Z,69.77
2019-02-22T19:16:10.834Z,69.82
2019-02-22T19:18:21.675Z,70.14
2019-02-22T19:20:32.524Z,70.20
2019-02-22T19:22:43.462Z,70.62
2019-02-22T19:24:54.358Z,70.77
2019-02-22T19:27:05.196Z,70.85
2019-02-22T19:29:15.991Z,71.06
2019-02-22T19:31:26.840Z,71.32
2019-02-22T19:33:37.714Z,71.30
2019-02-22T19:35:48.570Z,71.11
2019-02-22T19:37:59.363Z,71.18
2019-02-22T19:40:51.837Z,71.39
2019-02-22T19:43:02.715Z,71.48
2019-02-22T19:45:13.667Z,71.98
2019-02-22T19:47:24.497Z,72.12
2019-02-22T19:49:35.328Z,72.27
2019-02-22T19:51:46.177Z,72.62
2019-02-22T19:53:56.993Z,73.03
2019-02-22T19:56:07.839Z,72.92
2019-02-22T19:58:18.762Z,72.60
2019-02-22T20:00:29.570Z,72.24
2019-02-22T20:02:40.389Z,72.43
2019-02-22T20:04:53.331Z,72.68
2019-02-22T20:07:04.060Z,72.61
2019-02-22T20:09:14.858Z,72.86
2019-02-22T20:11:25.670Z,73.18
2019-02-22T20:13:36.539Z,73.40
2019-02-22T20:15:47.356Z,73.67
2019-02-22T20:17:58.227Z,73.76
2019-02-22T20:20:50.682Z,73.98
2019-02-22T20:23:01.531Z,74.27
2019-02-22T20:25:12.451Z,74.24
2019-02-22T20:27:23.268Z,74.01
2019-02-22T20:29:34.108Z,73.81
2019-02-22T20:31:44.902Z,73.65
2019-02-22T20:33:55.771Z,73.77
2019-02-22T20:36:06.712Z,73.94
2019-02-22T20:38:17.529Z,74.22
2019-02-22T20:40:28.473Z,74.59
2019-02-22T20:42:39.286Z,74.63
2019-02-22T20:44:50.292Z,74.95
2019-02-22T20:47:01.132Z,75.45
2019-02-22T20:49:12.106Z,75.86
2019-02-22T20:51:22.915Z,76.17
2019-02-22T20:53:33.746Z,76.60
2019-02-22T20:55:44.632Z,76.72
2019-02-22T20:57:55.443Z,76.48
2019-02-22T21:00:26.742Z,76.45
2019-02-22T21:02:37.555Z,76.31
2019-02-22T21:04:48.384Z,76.26
2019-02-22T21:06:59.206Z,76.17
2019-02-22T21:09:10.030Z,76.00
2019-02-22T21:11:20.882Z,75.67
2019-02-22T21:13:31.743Z,75.72
2019-02-22T21:15:42.582Z,75.69
2019-02-22T21:17:53.392Z,75.45
2019-02-22T21:20:45.892Z,75.67
2019-02-22T21:22:56.812Z,76.32
2019-02-22T21:25:49.259Z,76.09
2019-02-22T21:28:00.261Z,76.27
2019-02-22T21:30:52.771Z,76.04
2019-02-22T21:33:03.578Z,75.35
2019-02-22T21:35:14.488Z,75.09
2019-02-22T21:37:25.341Z,74.67
2019-02-22T21:39:36.172Z,74.50
2019-02-22T21:41:47.146Z,74.46
2019-02-22T21:43:57.904Z,74.47
2019-02-22T21:46:08.751Z,74.67
2019-02-22T21:48:27.259Z,74.88
2019-02-22T21:50:32.270Z,75.38
2019-02-22T21:52:43.194Z,75.51
2019-02-22T21:54:54.007Z,76.11
2019-02-22T21:57:04.823Z,76.24
2019-02-22T21:59:15.643Z,76.56
2019-02-22T22:01:26.539Z,76.81
2019-02-22T22:03:37.354Z,76.90
2019-02-22T22:05:48.160Z,76.63
2019-02-22T22:07:58.995Z,76.51
2019-02-22T22:10:09.955Z,76.61
2019-02-22T22:12:20.781Z,76.51
2019-02-22T22:14:31.661Z,76.33
2019-02-22T22:16:42.483Z,76.36
2019-02-22T22:19:13.175Z,76.22
2019-02-22T22:21:23.981Z,76.22
2019-02-22T22:23:34.866Z,75.96
2019-02-22T22:25:45.792Z,75.81
2019-02-22T22:27:56.650Z,75.81
2019-02-22T22:30:49.110Z,75.64
2019-02-22T22:32:59.929Z,75.48
2019-02-22T22:35:52.371Z,74.93
2019-02-22T22:38:03.199Z,74.72
2019-02-22T22:40:14.057Z,74.44
2019-02-22T22:42:24.875Z,74.36
2019-02-22T22:44:35.685Z,74.26
2019-02-22T22:46:46.498Z,74.30
2019-02-22T22:48:57.329Z,74.35
2019-02-22T22:51:08.149Z,74.65
2019-02-22T22:53:18.981Z,74.60
2019-02-22T22:55:29.773Z,74.10
2019-02-22T22:57:40.568Z,74.09
2019-02-22T22:59:51.374Z,74.23
2019-02-22T23:02:02.482Z,74.01
2019-02-22T23:04:13.309Z,73.80
2019-02-22T23:06:24.139Z,73.51
2019-02-22T23:08:34.955Z,73.33
2019-02-22T23:10:45.812Z,73.24
2019-02-22T23:12:56.614Z,73.57
2019-02-22T23:15:07.464Z,73.14
2019-02-22T23:17:18.397Z,72.91
2019-02-22T23:19:29.229Z,72.84
2019-02-22T23:21:40.035Z,72.71
2019-02-22T23:23:50.944Z,72.99
2019-02-22T23:26:01.760Z,73.16
2019-02-22T23:28:12.556Z,73.20
2019-02-22T23:30:23.409Z,73.22
2019-02-22T23:32:34.278Z,73.18
2019-02-22T23:34:45.131Z,73.33
2019-02-22T23:36:55.949Z,73.45
2019-02-22T23:39:48.410Z,73.14
2019-02-22T23:41:59.219Z,73.32
2019-02-22T23:44:10.013Z,73.67
2019-02-22T23:46:20.865Z,73.51
2019-02-22T23:48:31.668Z,73.73
2019-02-22T23:50:42.470Z,74.12
2019-02-22T23:52:53.307Z,74.09
2019-02-22T23:55:24.048Z,74.34
2019-02-22T23:57:34.851Z,74.34
2019-02-22T23:59:45.659Z,74.06
